Time;durP1;ratioP1;P1;durP2;ratioP2;P2;SDS_P1;SDS_P2;PMS_P1;PMS_P2;Temp;Humidity;BMP_temperature;BMP_pressure;BME280_temperature;BME280_humidity;BME280_pressure;Samples;Min_cycle;Max_cycle;Signal;HPM_P1;HPM_P2
2022/01/05 00:00:14;;;;;;;8.43;7.63;;;7.30;1.00;7.70;98654.00;;;;5022013;28;20491;-81
2022/01/05 00:02:43;;;;;;;8.13;7.40;;;7.30;1.00;7.70;98667.00;;;;5024197;28;20456;-81
2022/01/05 00:05:12;;;;;;;6.27;5.77;;;7.30;1.00;7.70;67951.00;;;;5024045;28;20445;-80
2022/01/05 00:07:40;;;;;;;6.80;6.07;;;7.30;1.00;7.70;67954.00;;;;5023957;28;20459;-80
2022/01/05 00:10:09;;;;;;;7.20;6.60;;;7.30;1.00;52.70;159970.00;;;;5024592;28;20466;-80
2022/01/05 00:12:39;;;;;;;7.70;6.97;;;7.40;1.00;7.70;98680.00;;;;5022131;28;21531;-78
2022/01/05 00:15:09;;;;;;;8.60;7.80;;;7.40;1.00;7.80;67980.00;;;;5025987;28;20548;-80
2022/01/05 00:17:38;;;;;;;10.03;9.00;;;7.40;1.00;217.30;160023.00;;;;5027744;28;20456;-82
2022/01/05 00:20:08;;;;;;;9.47;8.57;;;7.40;1.00;217.30;160023.00;;;;5026370;28;20485;-81
2022/01/05 00:22:36;;;;;;;10.03;9.03;;;7.40;1.00;7.70;67977.00;;;;5021017;28;20456;-80
2022/01/05 00:25:07;;;;;;;9.60;8.70;;;7.40;1.00;217.30;160008.00;;;;5024021;28;20510;-81
2022/01/05 00:27:35;;;;;;;10.87;9.60;;;7.40;1.00;7.80;98653.00;;;;5020260;28;20460;-82
2022/01/05 00:30:07;;;;;;;11.03;9.97;;;7.40;1.00;7.80;67977.00;;;;5025881;28;20484;-79
2022/01/05 00:32:35;;;;;;;11.40;10.30;;;7.40;1.00;7.80;67985.00;;;;5036730;28;20536;-82
2022/01/05 00:35:04;;;;;;;11.00;9.90;;;7.40;1.00;7.80;67979.00;;;;5036278;28;20456;-82
2022/01/05 00:37:33;;;;;;;12.43;10.73;;;7.40;1.00;7.80;67980.00;;;;5041228;28;20456;-80
2022/01/05 00:40:01;;;;;;;11.27;10.23;;;7.40;1.00;7.80;67985.00;;;;5031464;28;20469;-81
2022/01/05 00:42:29;;;;;;;10.57;9.57;;;7.50;1.00;7.80;67980.00;;;;5026132;28;20951;-80
2022/01/05 00:45:01;;;;;;;10.17;9.27;;;7.40;1.00;217.30;160029.00;;;;5024156;28;20813;-80
2022/01/05 00:47:31;;;;;;;9.30;8.40;;;7.40;1.00;7.80;67985.00;;;;5022252;28;20534;-79
2022/01/05 00:50:00;;;;;;;9.90;9.00;;;7.40;1.00;7.80;67980.00;;;;5026707;28;20530;-82
2022/01/05 00:52:28;;;;;;;9.23;8.33;;;7.50;1.00;7.80;67985.00;;;;5028401;28;20568;-82
2022/01/05 00:54:57;;;;;;;8.27;7.00;;;7.50;1.00;217.30;160027.00;;;;5031770;28;20450;-81
2022/01/05 00:57:25;;;;;;;8.47;7.50;;;7.50;1.00;7.80;67985.00;;;;5028544;28;20500;-81
2022/01/05 00:59:54;;;;;;;8.10;7.40;;;7.50;1.00;7.80;67980.00;;;;5024937;28;20476;-82
2022/01/05 01:02:22;;;;;;;7.30;6.60;;;7.60;1.00;7.80;67988.00;;;;5031616;28;20466;-79
2022/01/05 01:04:52;;;;;;;7.47;6.77;;;7.50;1.00;217.30;160065.00;;;;5035419;28;20448;-81
2022/01/05 01:07:20;;;;;;;8.03;7.07;;;7.70;1.00;7.90;67999.00;;;;5031731;28;20478;-80
2022/01/05 01:09:48;;;;;;;8.23;7.40;;;7.50;1.00;7.90;98628.00;;;;5038565;28;20452;-81
2022/01/05 01:12:17;;;;;;;7.63;6.80;;;7.50;1.00;7.80;98624.00;;;;5048416;28;20485;-82
2022/01/05 01:14:45;;;;;;;8.40;7.60;;;7.50;1.00;7.80;98605.00;;;;5028854;28;20437;-82
2022/01/05 01:17:14;;;;;;;7.80;7.10;;;7.40;1.00;7.80;98621.00;;;;5026544;28;20452;-80
2022/01/05 01:19:42;;;;;;;6.90;5.90;;;7.40;1.00;7.80;98617.00;;;;5017949;28;20489;-80
2022/01/05 01:22:12;;;;;;;11.00;9.90;;;7.40;1.00;7.70;67969.00;;;;5019906;28;20560;-81
2022/01/05 01:24:40;;;;;;;9.20;8.40;;;7.30;1.00;7.70;67968.00;;;;5020596;28;20473;-81
2022/01/05 01:27:09;;;;;;;8.80;8.00;;;7.30;1.00;217.30;160008.00;;;;5019669;28;20461;-81
2022/01/05 01:29:38;;;;;;;9.00;8.20;;;7.30;1.00;7.70;67963.00;;;;5020384;28;20476;-80
2022/01/05 01:32:08;;;;;;;8.80;8.00;;;7.30;1.00;217.30;159946.00;;;;5018020;28;20465;-82
2022/01/05 01:34:43;;;;;;;9.70;8.90;;;7.30;1.00;7.70;98649.00;;;;5018096;28;20445;-80
2022/01/05 01:37:14;;;;;;;9.00;8.20;;;7.30;1.00;7.70;98642.00;;;;5031797;28;20444;-80
2022/01/05 01:39:46;;;;;;;9.70;8.70;;;7.30;1.00;52.70;160002.00;;;;5040830;28;21073;-79
2022/01/05 01:42:15;;;;;;;8.37;7.60;;;7.30;1.00;52.70;159970.00;;;;5039879;28;20540;-80
2022/01/05 01:44:44;;;;;;;10.30;9.40;;;7.30;1.00;7.70;67963.00;;;;5021652;28;20461;-83
2022/01/05 01:47:12;;;;;;;8.83;8.03;;;7.30;1.00;7.70;67963.00;;;;5017355;28;20460;-79
2022/01/05 01:49:41;;;;;;;9.40;8.60;;;7.50;1.00;7.70;67969.00;;;;5015265;28;20508;-80
2022/01/05 01:52:10;;;;;;;9.53;8.63;;;7.30;1.00;7.70;67968.00;;;;5015616;28;21128;-79
2022/01/05 01:54:40;;;;;;;10.60;9.50;;;7.40;1.00;7.70;67963.00;;;;5017704;28;20462;-80
2022/01/05 01:57:09;;;;;;;10.70;9.60;;;7.30;1.00;7.70;67958.00;;;;5020825;28;20456;-80
2022/01/05 01:59:37;;;;;;;10.40;9.50;;;7.30;1.00;7.70;98667.00;;;;5020390;28;20473;-80
2022/01/05 02:02:08;;;;;;;11.03;9.93;;;7.30;1.00;7.70;98673.00;;;;5020137;28;20504;-80
2022/01/05 02:04:36;;;;;;;9.80;8.90;;;7.40;1.00;7.70;98664.00;;;;5037008;28;20462;-80
2022/01/05 02:07:05;;;;;;;10.97;9.90;;;7.40;1.00;7.70;98663.00;;;;5020218;28;20455;-80
2022/01/05 02:09:33;;;;;;;9.07;8.17;;;7.30;1.00;217.30;160008.00;;;;5020572;28;20473;-81
2022/01/05 02:12:06;;;;;;;10.20;9.30;;;7.30;1.00;217.30;159960.00;;;;5024364;28;20493;-80
2022/01/05 02:14:35;;;;;;;9.57;8.67;;;7.30;1.00;7.70;98657.00;;;;5024062;28;20532;-78
2022/01/05 02:17:10;;;;;;;9.93;8.53;;;7.30;1.00;7.60;67951.00;;;;5031231;28;20468;-78
2022/01/05 02:19:38;;;;;;;8.80;7.93;;;7.20;1.00;7.70;98676.00;;;;5052007;28;20486;-79
2022/01/05 02:22:08;;;;;;;8.40;7.60;;;7.30;1.00;7.60;98667.00;;;;5037811;28;20449;-79
2022/01/05 02:24:36;;;;;;;8.20;7.10;;;7.30;1.00;7.60;98678.00;;;;5041405;28;20457;-80
2022/01/05 02:27:05;;;;;;;8.27;6.93;;;7.30;1.00;7.70;98670.00;;;;5041185;28;20556;-80
2022/01/05 02:29:34;;;;;;;6.73;5.93;;;7.30;1.00;7.70;67960.00;;;;5037479;28;20484;-79
2022/01/05 02:32:07;;;;;;;7.10;6.40;;;7.30;1.00;7.70;98683.00;;;;5030889;28;20449;-78
2022/01/05 02:34:36;;;;;;;7.10;6.40;;;7.30;1.00;7.70;98678.00;;;;5036902;28;20440;-78
2022/01/05 02:37:04;;;;;;;7.67;6.33;;;7.30;1.00;7.70;98723.00;;;;5027188;28;20547;-78
2022/01/05 02:39:34;;;;;;;3.37;2.57;;;7.30;1.00;7.50;98737.00;;;;5029294;28;20572;-80
2022/01/05 02:42:04;;;;;;;1.87;1.53;;;7.30;1.00;7.00;98743.00;;;;5023825;28;20516;-78
2022/01/05 02:44:32;;;;;;;2.17;1.37;;;6.80;1.00;217.30;159565.00;;;;5018053;28;20574;-74
2022/01/05 02:47:01;;;;;;;1.47;0.70;;;6.40;1.00;6.50;98748.00;;;;5016430;28;20981;-78
2022/01/05 02:49:29;;;;;;;1.80;0.87;;;6.10;1.00;52.70;159353.00;;;;5018097;28;20487;-78
2022/01/05 02:51:58;;;;;;;1.20;0.60;;;5.80;1.00;52.70;159325.00;;;;5015878;28;20442;-78
2022/01/05 02:54:26;;;;;;;1.60;0.80;;;6.00;1.00;217.30;159242.00;;;;5036361;28;20483;-78
2022/01/05 02:56:55;;;;;;;1.73;0.70;;;5.50;1.00;5.90;67554.00;;;;5021703;28;20448;-78
2022/01/05 02:59:24;;;;;;;1.03;0.60;;;5.40;1.00;5.60;98782.00;;;;5032935;28;20481;-78
2022/01/05 03:01:52;;;;;;;1.20;0.80;;;5.20;1.00;5.60;98753.00;;;;5021854;28;20475;-77
2022/01/05 03:04:21;;;;;;;1.47;1.00;;;5.10;1.00;5.50;98506.00;;;;5016118;28;20456;-78
2022/01/05 03:06:49;;;;;;;1.47;1.10;;;5.00;1.00;5.40;98379.00;;;;5019681;28;20462;-77
2022/01/05 03:09:17;;;;;;;3.23;1.10;;;5.00;1.00;5.30;98349.00;;;;5019297;28;20477;-77
2022/01/05 03:11:45;;;;;;;2.40;0.93;;;4.90;1.00;5.20;98344.00;;;;5023028;28;20976;-77
2022/01/05 03:14:15;;;;;;;1.60;0.97;;;4.80;1.00;5.20;67414.00;;;;5020661;28;20530;-79
2022/01/05 03:16:43;;;;;;;1.20;0.80;;;4.80;1.00;5.30;98721.00;;;;5018206;28;20793;-77
2022/01/05 03:19:12;;;;;;;2.13;1.80;;;4.80;1.00;5.20;98727.00;;;;5015007;28;20484;-80
2022/01/05 03:21:40;;;;;;;1.30;0.97;;;4.70;1.00;5.10;98669.00;;;;5018801;28;20453;-79
2022/01/05 03:24:10;;;;;;;1.47;1.00;;;4.80;1.00;5.10;98746.00;;;;5021518;28;20480;-78
2022/01/05 03:26:38;;;;;;;2.13;1.17;;;4.70;1.00;217.30;158879.00;;;;5031233;28;20483;-80
2022/01/05 03:29:06;;;;;;;2.03;1.00;;;4.70;1.00;5.20;67410.00;;;;5023359;28;20491;-80
2022/01/05 03:31:36;;;;;;;1.63;1.00;;;4.70;1.00;5.20;98827.00;;;;5016203;28;20461;-80
2022/01/05 03:34:06;;;;;;;2.60;1.30;;;4.70;1.00;5.20;98838.00;;;;5027126;28;20477;-80
2022/01/05 03:36:34;;;;;;;2.13;0.93;;;4.70;1.00;5.20;98835.00;;;;5030951;28;20567;-79
2022/01/05 03:39:03;;;;;;;1.57;0.97;;;4.70;1.00;5.10;98827.00;;;;5028168;28;20552;-79
2022/01/05 03:41:31;;;;;;;1.50;1.13;;;4.70;1.00;5.10;98828.00;;;;5036774;28;20467;-79
2022/01/05 03:44:00;;;;;;;2.03;0.90;;;4.70;1.00;5.10;67395.00;;;;5030791;28;20464;-80
2022/01/05 03:46:28;;;;;;;1.50;0.80;;;4.60;1.00;5.10;98868.00;;;;5032482;28;20477;-79
2022/01/05 03:48:59;;;;;;;2.53;0.90;;;4.90;1.00;5.10;98868.00;;;;5031381;28;20493;-78
2022/01/05 03:51:28;;;;;;;1.90;0.87;;;4.60;1.00;5.00;98878.00;;;;5027361;28;20445;-78
2022/01/05 03:53:56;;;;;;;1.30;0.80;;;4.60;1.00;5.10;67381.00;;;;5032582;28;20470;-80
2022/01/05 03:56:24;;;;;;;3.40;1.30;;;4.60;1.00;5.10;67381.00;;;;5032086;28;20472;-80
2022/01/05 03:58:53;;;;;;;1.90;0.80;;;4.60;1.00;5.10;67390.00;;;;5021284;28;20476;-80
2022/01/05 04:01:21;;;;;;;2.23;0.90;;;4.70;1.00;217.30;158893.00;;;;5021007;28;20457;-80
2022/01/05 04:03:49;;;;;;;2.40;0.90;;;4.70;1.00;5.20;98923.00;;;;5018897;28;20812;-80
2022/01/05 04:06:19;;;;;;;1.53;0.60;;;4.90;1.00;5.30;67432.00;;;;5019703;28;20478;-78
2022/01/05 04:08:47;;;;;;;2.57;1.10;;;4.80;1.00;5.30;67430.00;;;;5017626;28;20450;-79
2022/01/05 04:11:16;;;;;;;1.90;0.93;;;4.90;1.00;5.30;98946.00;;;;5017959;28;20454;-79
2022/01/05 04:13:44;;;;;;;1.90;0.90;;;5.00;1.00;5.30;67433.00;;;;5018841;28;20482;-79
2022/01/05 04:16:12;;;;;;;2.33;1.20;;;4.90;1.00;5.40;98981.00;;;;5018665;28;20465;-78
2022/01/05 04:18:41;;;;;;;1.60;0.80;;;4.90;1.00;5.40;98995.00;;;;5017383;28;20592;-78
2022/01/05 04:21:10;;;;;;;2.43;0.93;;;5.00;1.00;5.30;98999.00;;;;5025148;28;20449;-80
2022/01/05 04:23:40;;;;;;;5.37;1.20;;;4.90;1.00;5.20;67414.00;;;;5029768;28;20471;-79
2022/01/05 04:26:08;;;;;;;3.23;1.10;;;4.80;1.00;5.20;99003.00;;;;5031988;28;20452;-79
2022/01/05 04:28:37;;;;;;;3.10;1.07;;;4.80;1.00;5.20;67398.00;;;;5029822;28;20453;-77
2022/01/05 04:31:05;;;;;;;5.47;1.30;;;4.80;1.00;5.20;99001.00;;;;5021886;28;20552;-78
2022/01/05 04:33:33;;;;;;;6.23;1.30;;;4.80;1.00;5.10;99011.00;;;;5026759;28;20496;-79
2022/01/05 04:36:22;;;;;;;4.27;1.27;;;4.70;1.00;5.10;98895.00;;;;5019369;28;20842;-78
2022/01/05 04:38:51;;;;;;;3.43;1.07;;;4.70;1.00;5.20;99036.00;;;;5021945;28;20491;-78
2022/01/05 04:41:20;;;;;;;3.10;1.23;;;4.70;1.00;5.20;99025.00;;;;5019700;28;20448;-78
2022/01/05 04:43:48;;;;;;;2.97;1.00;;;4.70;1.00;5.20;99033.00;;;;5021211;28;20469;-79
2022/01/05 04:46:16;;;;;;;4.97;1.40;;;4.80;1.00;5.20;99040.00;;;;5025935;28;20453;-79
2022/01/05 04:48:45;;;;;;;5.00;1.20;;;4.80;1.00;5.30;67410.00;;;;5025074;28;20444;-79
2022/01/05 04:51:14;;;;;;;3.43;1.17;;;5.00;1.00;5.30;99057.00;;;;5031817;28;20449;-79
2022/01/05 04:53:42;;;;;;;4.07;1.43;;;4.80;1.00;5.30;67420.00;;;;5033103;28;20478;-80
2022/01/05 04:56:11;;;;;;;3.00;1.27;;;4.80;1.00;5.30;99079.00;;;;5025440;28;20533;-80
2022/01/05 04:58:40;;;;;;;3.50;1.43;;;4.80;1.00;5.30;67422.00;;;;5037852;28;20532;-79
2022/01/05 05:01:08;;;;;;;7.10;1.97;;;4.80;1.00;5.30;67430.00;;;;5031795;28;20441;-79
2022/01/05 05:03:37;;;;;;;4.60;1.73;;;4.80;1.00;5.30;99096.00;;;;5030560;28;20453;-79
2022/01/05 05:06:06;;;;;;;5.60;1.83;;;4.90;1.00;5.30;99102.00;;;;5020734;28;21166;-79
2022/01/05 05:08:34;;;;;;;3.83;1.77;;;4.80;1.00;5.30;99095.00;;;;5018669;28;20458;-78
2022/01/05 05:11:02;;;;;;;5.63;3.47;;;4.80;1.00;5.30;67422.00;;;;5018025;28;20492;-78
2022/01/05 05:13:32;;;;;;;5.10;3.00;;;4.80;1.00;5.20;67417.00;;;;5015700;28;20453;-78
2022/01/05 05:16:01;;;;;;;6.47;3.37;;;4.80;1.00;5.20;99122.00;;;;5017684;28;20825;-77
2022/01/05 05:18:31;;;;;;;4.53;3.10;;;4.90;1.00;5.20;99136.00;;;;5017347;28;20496;-77
2022/01/05 05:20:59;;;;;;;5.27;3.23;;;4.80;1.00;5.10;67390.00;;;;5019205;28;20456;-78
2022/01/05 05:23:27;;;;;;;7.23;3.40;;;4.80;1.00;5.10;67395.00;;;;5020994;28;20453;-78
2022/01/05 05:25:56;;;;;;;7.63;4.30;;;4.80;1.00;217.30;158905.00;;;;5020977;28;20461;-78
2022/01/05 05:28:24;;;;;;;11.50;3.67;;;4.80;1.00;5.20;99124.00;;;;5030948;28;20457;-78
2022/01/05 05:30:54;;;;;;;6.67;3.80;;;4.80;1.00;5.20;99142.00;;;;5023882;28;20476;-78
2022/01/05 05:33:22;;;;;;;7.30;4.00;;;4.80;1.00;5.20;99152.00;;;;5031036;28;20456;-79
2022/01/05 05:35:51;;;;;;;6.77;3.43;;;4.80;1.00;5.30;99153.00;;;;5028243;28;20477;-78
2022/01/05 05:38:19;;;;;;;8.33;4.47;;;4.90;1.00;5.30;67420.00;;;;5017534;28;20453;-78
2022/01/05 05:40:48;;;;;;;7.07;3.80;;;4.90;1.00;5.30;67427.00;;;;5017439;28;20946;-79
2022/01/05 05:43:16;;;;;;;8.90;3.37;;;4.90;1.00;5.30;67433.00;;;;5019666;28;20469;-80
2022/01/05 05:45:44;;;;;;;6.67;3.60;;;4.90;1.00;5.30;67436.00;;;;5014423;28;20472;-79
2022/01/05 05:48:14;;;;;;;6.93;3.70;;;4.90;1.00;5.30;67436.00;;;;5015930;28;20457;-78
2022/01/05 05:50:43;;;;;;;8.53;3.70;;;4.90;1.00;5.40;67441.00;;;;5014489;28;20505;-78
2022/01/05 05:53:11;;;;;;;9.27;3.23;;;4.90;1.00;5.30;67436.00;;;;5017077;28;20468;-80
2022/01/05 05:55:40;;;;;;;4.80;3.00;;;5.00;1.00;5.40;99182.00;;;;5016534;28;20473;-78
2022/01/05 05:58:08;;;;;;;7.13;2.90;;;4.90;1.00;5.40;99176.00;;;;5017411;28;20469;-77
2022/01/05 06:00:37;;;;;;;11.50;3.63;;;5.20;1.00;5.30;67427.00;;;;5018793;28;20576;-79
2022/01/05 06:03:05;;;;;;;8.13;3.50;;;4.90;1.00;5.30;99207.00;;;;5016825;28;20465;-78
2022/01/05 06:05:35;;;;;;;6.40;2.73;;;4.90;1.00;5.20;99207.00;;;;5015294;28;21036;-77
2022/01/05 06:08:03;;;;;;;3.30;2.50;;;4.80;1.00;5.10;99213.00;;;;5014659;28;20459;-79
2022/01/05 06:10:31;;;;;;;8.27;3.13;;;4.70;1.00;5.10;99205.00;;;;5016093;28;20485;-78
2022/01/05 06:13:00;;;;;;;5.63;2.83;;;4.70;1.00;5.00;99223.00;;;;5015892;28;20464;-78
2022/01/05 06:15:35;;;;;;;4.27;1.90;;;4.70;1.00;4.90;99234.00;;;;5015355;28;20473;-77
2022/01/05 06:18:03;;;;;;;7.10;1.53;;;4.60;1.00;4.90;99232.00;;;;5015900;28;21700;-79
2022/01/05 06:20:31;;;;;;;5.37;2.70;;;4.50;1.00;4.80;67319.00;;;;5017303;28;20491;-78
2022/01/05 06:23:01;;;;;;;6.13;2.03;;;4.50;1.00;4.80;67319.00;;;;5015727;28;20472;-79
2022/01/05 06:25:30;;;;;;;7.63;2.03;;;4.40;1.00;4.80;99269.00;;;;5016700;28;20465;-79
2022/01/05 06:27:58;;;;;;;5.53;2.37;;;4.40;1.00;4.70;99269.00;;;;5014286;28;20461;-79
2022/01/05 06:30:26;;;;;;;5.57;2.57;;;4.30;1.00;4.60;99284.00;;;;5026548;28;20478;-80
2022/01/05 06:32:55;;;;;;;4.97;2.10;;;4.20;1.00;4.60;99243.00;;;;5031032;28;20551;-80
2022/01/05 06:35:24;;;;;;;8.80;2.20;;;4.20;1.00;217.30;158598.00;;;;5017466;28;20488;-79
2022/01/05 06:37:53;;;;;;;2.93;1.67;;;4.00;1.00;4.40;99278.00;;;;5018778;28;20444;-80
2022/01/05 06:40:24;;;;;;;5.90;1.50;;;4.00;1.00;4.50;99233.00;;;;5018006;28;20568;-80
2022/01/05 06:42:53;;;;;;;8.70;2.63;;;4.10;1.00;4.50;67256.00;;;;5018871;28;20460;-79
2022/01/05 06:45:21;;;;;;;7.17;2.13;;;4.10;1.00;4.50;99292.00;;;;5040904;28;20491;-79
2022/01/05 06:47:49;;;;;;;6.77;2.03;;;4.00;1.00;4.50;67250.00;;;;5035259;28;20501;-79
2022/01/05 06:50:18;;;;;;;7.77;2.37;;;4.10;1.00;4.50;67256.00;;;;5036419;28;20478;-79
2022/01/05 06:52:46;;;;;;;8.83;2.67;;;4.10;1.00;4.50;67256.00;;;;5026360;28;20461;-79
2022/01/05 06:55:15;;;;;;;6.63;2.40;;;4.10;1.00;4.50;67247.00;;;;5027846;28;20488;-79
2022/01/05 06:57:44;;;;;;;7.13;2.13;;;4.10;1.00;4.40;67230.00;;;;5028524;28;20946;-79
2022/01/05 07:00:14;;;;;;;8.30;2.17;;;4.00;1.00;217.30;158556.00;;;;5050240;28;20465;-79
2022/01/05 07:02:43;;;;;;;5.80;2.03;;;4.00;1.00;217.30;158578.00;;;;5032243;28;20459;-79
2022/01/05 07:05:11;;;;;;;8.30;2.77;;;4.00;1.00;52.70;158572.00;;;;5027876;28;20484;-79
2022/01/05 07:07:40;;;;;;;8.87;2.87;;;3.90;1.00;4.40;67229.00;;;;5044677;28;20948;-79
2022/01/05 07:10:10;;;;;;;8.00;2.30;;;3.90;1.00;4.40;99316.00;;;;5031313;28;20488;-78
2022/01/05 07:12:40;;;;;;;6.17;2.03;;;3.90;1.00;4.30;99333.00;;;;5031324;28;20470;-78
2022/01/05 07:15:11;;;;;;;5.60;2.20;;;3.90;1.00;4.40;99351.00;;;;5029874;28;20495;-79
2022/01/05 07:17:40;;;;;;;5.93;2.10;;;3.90;1.00;4.30;99347.00;;;;5030452;28;20438;-79
2022/01/05 07:20:10;;;;;;;5.40;2.03;;;3.90;1.00;4.30;67202.00;;;;5027291;28;20560;-78
2022/01/05 07:22:39;;;;;;;5.53;2.00;;;3.80;1.00;4.30;99346.00;;;;5021795;28;21999;-78
2022/01/05 07:25:08;;;;;;;6.93;2.20;;;3.80;1.00;4.20;99350.00;;;;5025927;28;20481;-78
2022/01/05 07:27:37;;;;;;;6.70;2.07;;;3.80;1.00;4.30;99348.00;;;;5016277;28;20828;-80
2022/01/05 07:30:07;;;;;;;8.67;2.10;;;3.70;1.00;4.30;99322.00;;;;5011071;28;20999;-79
2022/01/05 07:32:37;;;;;;;7.23;1.73;;;3.70;1.00;4.20;99322.00;;;;5016788;28;20469;-80
2022/01/05 07:35:07;;;;;;;4.07;2.00;;;3.70;1.00;4.10;99364.00;;;;5011498;28;20492;-79
2022/01/05 07:37:36;;;;;;;6.50;2.03;;;3.70;1.00;4.10;99374.00;;;;5017174;28;20468;-79
2022/01/05 07:40:35;;;;;;;4.27;1.90;;;3.60;1.00;4.10;67123.00;;;;5039493;28;20856;-81
2022/01/05 07:43:06;;;;;;;7.67;2.13;;;3.60;1.00;4.00;67148.00;;;;5016056;28;20476;-79
2022/01/05 07:45:36;;;;;;;5.30;1.60;;;3.50;1.00;4.00;99405.00;;;;5015279;28;20992;-78
2022/01/05 07:48:06;;;;;;;6.10;2.00;;;3.50;1.00;3.90;67125.00;;;;5020233;28;20516;-79
2022/01/05 07:50:35;;;;;;;5.80;1.73;;;3.40;1.00;3.90;67134.00;;;;5017980;28;20485;-79
2022/01/05 07:53:04;;;;;;;5.67;1.67;;;3.40;1.00;4.00;67137.00;;;;5018219;28;20458;-78
2022/01/05 07:55:34;;;;;;;5.70;1.90;;;3.50;1.00;4.00;99421.00;;;;5037437;28;20476;-79
2022/01/05 07:58:03;;;;;;;5.30;2.20;;;3.50;1.00;4.10;67156.00;;;;5022361;28;20480;-79
2022/01/05 08:00:35;;;;;;;10.47;2.53;;;3.50;1.00;4.10;99433.00;;;;5014762;28;20477;-80
2022/01/05 08:03:06;;;;;;;3.87;1.43;;;3.60;1.00;4.10;67167.00;;;;5024359;28;20445;-79
2022/01/05 08:05:34;;;;;;;8.60;2.80;;;3.60;1.00;4.20;67188.00;;;;5024707;28;20458;-80
2022/01/05 08:08:04;;;;;;;9.57;2.20;;;3.60;1.00;4.40;99437.00;;;;5015808;28;20461;-79
2022/01/05 08:10:32;;;;;;;7.53;1.97;;;3.70;1.00;52.70;158572.00;;;;5021254;28;20499;-79
2022/01/05 08:13:00;;;;;;;7.27;2.00;;;3.80;1.00;4.40;99452.00;;;;5019256;28;20468;-79
2022/01/05 08:15:29;;;;;;;12.03;2.90;;;3.90;1.00;4.40;99438.00;;;;5019601;28;20472;-78
2022/01/05 08:17:57;;;;;;;5.67;2.40;;;4.10;1.00;4.50;99448.00;;;;5016986;28;20970;-80
2022/01/05 08:20:27;;;;;;;6.00;2.50;;;4.00;1.00;4.60;99456.00;;;;5016763;28;22133;-79
2022/01/05 08:22:56;;;;;;;5.90;2.17;;;4.10;1.00;4.70;99459.00;;;;5017350;28;20575;-79
2022/01/05 08:25:24;;;;;;;7.57;2.00;;;4.20;1.00;4.90;99457.00;;;;5028255;28;20449;-80
2022/01/05 08:27:53;;;;;;;8.00;2.90;;;4.40;1.00;5.00;67357.00;;;;5032179;28;20473;-80
2022/01/05 08:30:25;;;;;;;7.90;2.53;;;4.50;1.00;4.90;67362.00;;;;5016240;28;20564;-78
2022/01/05 08:32:54;;;;;;;7.93;2.00;;;4.50;1.00;4.90;99459.00;;;;5015700;28;20832;-80
2022/01/05 08:35:24;;;;;;;12.07;2.50;;;4.40;1.00;4.70;99469.00;;;;5017227;28;21543;-78
2022/01/05 08:37:54;;;;;;;5.10;1.80;;;4.30;1.00;4.70;99477.00;;;;5016184;28;20462;-79
2022/01/05 08:40:25;;;;;;;4.90;2.20;;;4.20;1.00;217.30;158655.00;;;;5017010;28;21122;-76
2022/01/05 08:42:55;;;;;;;7.17;1.90;;;4.20;1.00;4.60;67293.00;;;;5020243;28;20540;-78
2022/01/05 08:45:25;;;;;;;8.90;2.47;;;4.10;1.00;4.70;67288.00;;;;5015743;28;20471;-79
2022/01/05 08:47:55;;;;;;;6.40;2.37;;;4.20;1.00;4.80;67307.00;;;;5014160;28;20493;-80
2022/01/05 08:50:26;;;;;;;7.23;1.90;;;4.20;1.00;4.80;67314.00;;;;5017356;28;20493;-79
2022/01/05 08:52:57;;;;;;;7.60;2.20;;;4.30;1.00;4.80;99474.00;;;;5016575;28;20449;-79
2022/01/05 08:55:30;;;;;;;6.50;1.87;;;4.30;1.00;217.30;158788.00;;;;5019687;28;20475;-80
2022/01/05 08:57:59;;;;;;;6.90;2.23;;;4.40;1.00;217.30;158796.00;;;;5024594;28;20967;-81
2022/01/05 09:00:28;;;;;;;7.20;2.30;;;4.40;1.00;5.00;99500.00;;;;5014597;28;20572;-78
2022/01/05 09:02:58;;;;;;;8.67;2.50;;;4.50;1.00;5.00;99490.00;;;;5020565;28;20908;-80
2022/01/05 09:05:26;;;;;;;6.07;2.73;;;4.50;1.00;5.00;99483.00;;;;5024878;28;20464;-79
2022/01/05 09:07:56;;;;;;;6.03;1.93;;;4.50;1.00;5.10;67373.00;;;;5024230;28;20492;-79
2022/01/05 09:10:25;;;;;;;7.07;2.10;;;4.60;1.00;5.20;67407.00;;;;5016069;28;20478;-79
2022/01/05 09:12:56;;;;;;;12.67;4.63;;;4.70;1.00;5.40;99512.00;;;;5022801;28;20531;-80
2022/01/05 09:15:25;;;;;;;8.27;2.83;;;4.90;1.00;217.30;159012.00;;;;5013536;28;20504;-81
2022/01/05 09:17:54;;;;;;;5.73;2.10;;;4.90;1.00;5.40;99535.00;;;;5013065;28;21655;-79
2022/01/05 09:20:23;;;;;;;4.43;1.90;;;4.90;1.00;5.60;67498.00;;;;5010825;28;20580;-78
2022/01/05 09:22:51;;;;;;;8.10;2.57;;;5.10;1.00;5.70;67518.00;;;;5014798;28;20456;-81
2022/01/05 09:25:22;;;;;;;7.23;2.83;;;5.20;1.00;5.80;99521.00;;;;5014162;28;20461;-80
2022/01/05 09:27:52;;;;;;;8.20;2.47;;;5.30;1.00;6.00;99525.00;;;;5018565;28;20466;-79
2022/01/05 09:30:22;;;;;;;8.27;2.70;;;5.50;1.00;6.30;99527.00;;;;5018465;28;20476;-80
2022/01/05 09:32:51;;;;;;;4.80;2.10;;;5.80;1.00;6.20;67634.00;;;;5029396;28;20457;-79
2022/01/05 09:35:22;;;;;;;7.03;2.17;;;6.00;1.00;6.10;67601.00;;;;5036649;28;20473;-77
2022/01/05 09:38:06;;;;;;;6.83;1.80;;;5.70;1.00;6.00;67587.00;;;;5050129;28;20565;-78
2022/01/05 09:43:22;;;;;;;6.53;2.10;;;5.60;1.00;5.90;99524.00;;;;5023472;28;20457;-80
2022/01/05 09:46:06;;;;;;;11.37;4.10;;;5.50;1.00;6.00;99552.00;;;;5030805;28;22342;-80
2022/01/05 09:48:54;;;;;;;8.23;2.07;;;5.70;1.00;5.90;99533.00;;;;5031790;28;20524;-78
2022/01/05 09:51:30;;;;;;;8.00;3.03;;;5.50;1.00;5.90;99547.00;;;;5039886;28;20993;-78
2022/01/05 09:54:02;;;;;;;4.43;2.40;;;5.50;1.00;217.30;159236.00;;;;5033020;28;20457;-80
2022/01/05 09:56:52;;;;;;;7.20;2.30;;;5.60;1.00;5.90;99546.00;;;;5034889;28;20528;-78
2022/01/05 09:59:21;;;;;;;5.30;2.07;;;5.50;1.00;5.90;99563.00;;;;5031612;28;21045;-80
2022/01/05 10:01:49;;;;;;;7.30;2.50;;;5.50;1.00;5.90;99561.00;;;;5019153;28;20449;-79
2022/01/05 10:04:18;;;;;;;7.60;2.80;;;5.50;1.00;6.00;99542.00;;;;5018892;28;20460;-79
2022/01/05 10:06:50;;;;;;;10.93;2.60;;;5.50;1.00;6.00;99546.00;;;;5043959;28;20808;-79
2022/01/05 10:09:19;;;;;;;7.40;2.53;;;5.50;1.00;6.00;99557.00;;;;5022778;28;20604;-79
2022/01/05 10:11:47;;;;;;;6.60;2.27;;;5.50;1.00;6.00;67587.00;;;;5029057;28;20520;-79
2022/01/05 10:14:17;;;;;;;5.10;2.43;;;5.60;1.00;6.10;67582.00;;;;5024280;28;20546;-79
2022/01/05 10:17:03;;;;;;;6.50;2.47;;;5.60;1.00;5.90;99572.00;;;;5023472;28;20481;-79
2022/01/05 10:19:33;;;;;;;12.87;3.77;;;5.50;1.00;5.90;99572.00;;;;5020446;28;20483;-80
2022/01/05 10:22:02;;;;;;;7.03;3.00;;;5.50;1.00;5.90;99562.00;;;;5015004;28;20461;-80
2022/01/05 10:24:43;;;;;;;5.97;2.20;;;5.50;1.00;5.90;67565.00;;;;5013373;28;20560;-80
2022/01/05 10:27:18;;;;;;;5.77;2.30;;;5.50;1.00;5.90;99561.00;;;;5031464;28;20496;-80
2022/01/05 10:29:58;;;;;;;5.83;2.70;;;5.50;1.00;6.00;67600.00;;;;5014105;28;20477;-80
2022/01/05 10:32:30;;;;;;;6.73;2.70;;;5.60;1.00;6.00;67592.00;;;;5012825;28;20448;-79
2022/01/05 10:35:01;;;;;;;10.83;2.90;;;5.60;1.00;217.30;159274.00;;;;5013289;28;20457;-80
2022/01/05 10:37:30;;;;;;;6.60;2.77;;;5.60;1.00;6.10;67601.00;;;;5014079;28;20480;-81
2022/01/05 10:40:10;;;;;;;8.43;2.60;;;5.60;1.00;6.10;99565.00;;;;5023773;28;20504;-79
2022/01/05 10:42:39;;;;;;;7.87;2.80;;;5.70;1.00;6.10;99572.00;;;;5017387;28;21064;-79
2022/01/05 10:45:14;;;;;;;8.60;2.77;;;5.70;1.00;6.10;99563.00;;;;5026802;28;20528;-78
2022/01/05 10:47:42;;;;;;;5.63;2.07;;;5.70;1.00;6.20;99553.00;;;;5032053;28;20544;-78
2022/01/05 10:50:20;;;;;;;6.57;2.63;;;5.70;1.00;6.20;67634.00;;;;5021810;28;20480;-78
2022/01/05 10:52:57;;;;;;;7.87;3.13;;;5.80;1.00;217.30;159353.00;;;;5015688;28;20453;-79
2022/01/05 10:55:29;;;;;;;5.57;2.30;;;5.60;1.00;6.10;67614.00;;;;5020462;28;20471;-80
2022/01/05 10:58:04;;;;;;;3.77;1.87;;;5.70;1.00;6.10;67612.00;;;;5022443;28;20475;-80
2022/01/05 11:00:39;;;;;;;8.37;2.57;;;5.70;1.00;6.00;67603.00;;;;5034191;28;20477;-79
2022/01/05 11:03:26;;;;;;;10.47;2.57;;;5.60;1.00;6.00;99588.00;;;;5018672;28;20467;-78
2022/01/05 11:06:17;;;;;;;5.20;2.77;;;5.60;1.00;217.30;159264.00;;;;5016837;28;20461;-78
2022/01/05 11:08:52;;;;;;;6.10;2.70;;;5.60;1.00;6.00;99569.00;;;;5030116;28;20499;-80
2022/01/05 11:11:38;;;;;;;9.13;2.50;;;5.60;1.00;6.00;99573.00;;;;5013051;28;20460;-80
2022/01/05 11:14:08;;;;;;;11.30;3.47;;;5.60;1.00;217.30;159278.00;;;;5016125;28;20460;-80
2022/01/05 11:16:40;;;;;;;11.63;2.23;;;5.60;1.00;6.10;99582.00;;;;5034678;28;20993;-77
2022/01/05 11:19:14;;;;;;;5.73;2.10;;;5.70;1.00;6.20;99573.00;;;;5032451;28;20564;-77
2022/01/05 11:22:04;;;;;;;4.13;1.97;;;5.80;1.00;6.20;99556.00;;;;5029493;28;20456;-78
2022/01/05 11:24:36;;;;;;;5.87;2.13;;;5.80;1.00;6.20;99535.00;;;;5030026;28;20496;-77
2022/01/05 11:27:06;;;;;;;7.37;2.27;;;5.70;1.00;6.20;99527.00;;;;5017471;28;20477;-79
2022/01/05 11:29:35;;;;;;;5.33;2.20;;;5.70;1.00;6.30;99552.00;;;;5016341;28;20497;-79